Time;durP1;ratioP1;P1;durP2;ratioP2;P2;SDS_P1;SDS_P2;PMS_P1;PMS_P2;Temp;Humidity;BMP_temperature;BMP_pressure;BME280_temperature;BME280_humidity;BME280_pressure;Samples;Min_cycle;Max_cycle;Signal;HPM_P1;HPM_P2
2021/01/30 00:01:42;;;;;;;3.92;0.50;;;7.00;99.90;;;;;;5076843;28;20039;-63
2021/01/30 00:04:07;;;;;;;0.98;0.50;;;7.10;99.90;;;;;;5087328;28;20031;-62
2021/01/30 00:06:33;;;;;;;2.80;0.70;;;7.00;99.90;;;;;;5101391;28;20017;-64
2021/01/30 00:08:59;;;;;;;2.05;0.85;;;7.10;99.90;;;;;;5090960;28;20032;-64
2021/01/30 00:11:25;;;;;;;4.60;0.68;;;7.00;99.90;;;;;;5083638;28;20020;-63
2021/01/30 00:13:50;;;;;;;1.88;0.68;;;7.00;99.90;;;;;;5075958;28;20060;-62
2021/01/30 00:16:16;;;;;;;1.58;0.60;;;7.00;99.90;;;;;;5079351;28;20469;-63
2021/01/30 00:18:42;;;;;;;2.55;0.47;;;7.10;98.50;;;;;;5088437;28;20043;-62
2021/01/30 00:21:10;;;;;;;1.55;0.40;;;7.10;98.80;;;;;;5092364;28;20070;-63
2021/01/30 00:23:36;;;;;;;1.58;0.80;;;7.10;99.40;;;;;;5083422;28;20039;-64
2021/01/30 00:26:02;;;;;;;1.55;0.50;;;7.10;99.10;;;;;;5090929;28;20028;-62
2021/01/30 00:28:27;;;;;;;1.83;0.57;;;7.10;99.10;;;;;;5074055;28;20032;-62
2021/01/30 00:30:53;;;;;;;1.75;0.60;;;7.10;99.90;;;;;;5089447;28;20055;-63
2021/01/30 00:33:19;;;;;;;2.67;0.52;;;7.00;99.40;;;;;;5071729;28;20381;-63
2021/01/30 00:35:45;;;;;;;1.95;0.40;;;7.00;99.80;;;;;;5081591;28;20032;-63
2021/01/30 00:38:11;;;;;;;2.33;0.43;;;7.00;97.10;;;;;;5089164;28;20040;-64
2021/01/30 00:40:36;;;;;;;0.85;0.40;;;6.90;97.90;;;;;;5080323;28;20028;-64
2021/01/30 00:43:04;;;;;;;2.58;0.28;;;6.80;98.20;;;;;;5080978;28;20039;-64
2021/01/30 00:45:30;;;;;;;1.35;0.50;;;6.80;97.90;;;;;;5081926;28;20031;-63
2021/01/30 00:47:57;;;;;;;2.38;0.50;;;6.70;97.70;;;;;;5084359;28;20032;-63
2021/01/30 00:50:23;;;;;;;2.90;0.40;;;6.70;99.00;;;;;;5090257;28;20028;-64
2021/01/30 00:52:48;;;;;;;0.60;0.38;;;6.60;99.00;;;;;;5084696;28;20541;-64
2021/01/30 00:55:19;;;;;;;3.95;0.60;;;6.60;98.50;;;;;;5091809;28;20415;-66
2021/01/30 00:57:45;;;;;;;2.33;0.50;;;6.60;98.40;;;;;;5084189;28;20079;-64
2021/01/30 01:00:18;;;;;;;0.70;0.32;;;6.60;98.20;;;;;;5083423;28;20051;-64
2021/01/30 01:02:43;;;;;;;1.40;0.40;;;6.50;99.00;;;;;;5084174;28;20040;-64
2021/01/30 01:05:11;;;;;;;1.15;0.38;;;6.50;98.00;;;;;;5087069;28;20078;-63
2021/01/30 01:07:37;;;;;;;1.35;0.40;;;6.40;99.20;;;;;;5083468;28;20028;-64
2021/01/30 01:10:04;;;;;;;1.00;0.40;;;6.50;97.80;;;;;;5081652;28;20377;-63
2021/01/30 01:12:30;;;;;;;3.55;0.60;;;6.40;99.00;;;;;;5078284;28;20036;-64
2021/01/30 01:14:55;;;;;;;3.33;0.55;;;6.40;99.30;;;;;;5089240;28;20034;-63
2021/01/30 01:17:21;;;;;;;1.95;0.30;;;6.30;99.50;;;;;;5103459;28;20051;-63
2021/01/30 01:19:47;;;;;;;1.80;0.35;;;6.30;99.90;;;;;;5085968;28;20023;-64
2021/01/30 01:22:12;;;;;;;0.77;0.50;;;6.20;99.90;;;;;;5073718;28;20089;-67
2021/01/30 01:24:38;;;;;;;1.00;0.40;;;6.10;99.90;;;;;;5074845;28;20055;-64
2021/01/30 01:27:04;;;;;;;1.08;0.30;;;6.10;99.90;;;;;;5084877;28;20047;-63
2021/01/30 01:29:29;;;;;;;1.85;0.50;;;6.00;99.90;;;;;;5079893;28;20029;-63
2021/01/30 01:31:56;;;;;;;1.92;0.38;;;6.00;99.90;;;;;;5091604;28;20039;-64
2021/01/30 01:34:25;;;;;;;2.10;0.38;;;5.90;99.90;;;;;;5072781;28;20385;-63
2021/01/30 01:36:56;;;;;;;1.02;0.38;;;6.00;99.90;;;;;;5075880;28;20044;-63
2021/01/30 01:39:23;;;;;;;1.48;0.55;;;5.90;99.90;;;;;;5072889;28;20036;-64
2021/01/30 01:41:57;;;;;;;1.40;0.40;;;5.90;99.90;;;;;;5083674;28;20595;-65
2021/01/30 01:44:22;;;;;;;2.45;0.40;;;6.00;99.90;;;;;;5079823;28;20070;-64
2021/01/30 01:46:48;;;;;;;2.22;0.70;;;6.00;99.90;;;;;;5088871;28;20032;-64
2021/01/30 01:49:19;;;;;;;3.28;0.43;;;6.00;99.90;;;;;;5081404;28;20468;-66
2021/01/30 01:52:00;;;;;;;1.55;0.32;;;6.10;99.90;;;;;;5091039;28;20024;-63
2021/01/30 01:54:27;;;;;;;0.30;0.25;;;6.10;99.90;;;;;;5082249;28;20020;-64
2021/01/30 01:56:59;;;;;;;5.47;1.13;;;6.10;99.90;;;;;;5083070;28;20353;-64
2021/01/30 01:59:25;;;;;;;2.55;0.40;;;6.20;99.90;;;;;;5075504;28;20519;-63
2021/01/30 02:01:53;;;;;;;2.30;0.45;;;6.20;99.90;;;;;;5074396;28;20037;-63
2021/01/30 02:04:21;;;;;;;3.10;0.43;;;6.20;99.90;;;;;;5082191;28;20031;-64
2021/01/30 02:06:49;;;;;;;2.33;0.65;;;6.30;99.90;;;;;;5084714;28;20378;-64
2021/01/30 02:09:21;;;;;;;2.75;0.52;;;6.30;99.90;;;;;;5078346;28;20039;-67
2021/01/30 02:12:04;;;;;;;1.10;0.60;;;6.30;99.90;;;;;;5075678;28;20040;-63
2021/01/30 02:14:35;;;;;;;1.60;0.40;;;6.30;99.90;;;;;;5072915;28;20040;-64
2021/01/30 02:17:34;;;;;;;2.67;0.38;;;6.30;99.90;;;;;;5084411;28;20029;-63
2021/01/30 02:20:24;;;;;;;1.20;0.20;;;6.30;99.90;;;;;;5076344;28;20047;-65
2021/01/30 02:23:26;;;;;;;0.32;0.22;;;6.30;99.90;;;;;;5081813;28;20051;-64
2021/01/30 02:26:14;;;;;;;0.60;0.20;;;6.30;99.90;;;;;;5082478;28;20024;-63
2021/01/30 02:28:42;;;;;;;2.80;0.40;;;6.30;99.90;;;;;;5089457;28;20587;-64
2021/01/30 02:31:37;;;;;;;2.33;0.32;;;6.30;99.90;;;;;;5086618;28;20029;-63
2021/01/30 02:34:31;;;;;;;0.55;0.25;;;6.30;99.90;;;;;;5079696;28;20486;-63
2021/01/30 02:37:11;;;;;;;1.13;0.30;;;6.30;99.90;;;;;;5070231;28;20098;-64
2021/01/30 02:39:41;;;;;;;1.90;0.20;;;6.30;99.90;;;;;;5083896;28;20044;-64
2021/01/30 02:42:31;;;;;;;0.75;0.20;;;6.30;99.90;;;;;;5081040;28;20035;-64
2021/01/30 02:45:17;;;;;;;2.22;0.38;;;6.30;99.90;;;;;;5086672;28;20135;-64
2021/01/30 02:47:47;;;;;;;2.33;0.20;;;6.30;99.90;;;;;;5082253;28;20043;-63
2021/01/30 02:50:26;;;;;;;1.95;0.20;;;6.30;99.90;;;;;;5088207;28;20024;-66
2021/01/30 02:52:56;;;;;;;2.15;0.28;;;6.30;99.90;;;;;;5082795;28;20066;-63
2021/01/30 02:55:25;;;;;;;0.65;0.10;;;6.20;99.90;;;;;;5085999;28;20038;-63
2021/01/30 02:57:52;;;;;;;0.88;0.15;;;6.10;99.90;;;;;;5076986;28;20488;-63
2021/01/30 03:00:19;;;;;;;0.82;0.13;;;5.90;99.90;;;;;;5079489;28;20043;-65
2021/01/30 03:02:45;;;;;;;0.43;0.08;;;5.90;99.90;;;;;;5079134;28;20025;-64
2021/01/30 03:05:12;;;;;;;1.55;0.32;;;5.80;99.90;;;;;;5079110;28;20682;-64
2021/01/30 03:07:54;;;;;;;1.80;0.10;;;5.70;99.90;;;;;;5086066;28;20449;-63
2021/01/30 03:10:37;;;;;;;0.43;0.10;;;5.70;99.90;;;;;;5081084;28;20099;-63
2021/01/30 03:13:18;;;;;;;1.17;0.20;;;5.70;99.90;;;;;;5077179;28;20036;-64
2021/01/30 03:15:59;;;;;;;0.10;0.10;;;5.70;99.90;;;;;;5077952;28;20031;-63
2021/01/30 03:18:30;;;;;;;;;;;5.70;99.90;;;;;;5073492;28;20039;-63
2021/01/30 03:20:56;;;;;;;0.30;0.10;;;5.60;99.90;;;;;;5090174;28;19912;-64
2021/01/30 03:23:22;;;;;;;0.22;0.10;;;5.60;99.90;;;;;;5078495;28;20392;-63
2021/01/30 03:25:50;;;;;;;1.10;0.10;;;5.60;99.90;;;;;;5082976;28;20427;-63
2021/01/30 03:28:16;;;;;;;1.23;0.10;;;5.70;99.90;;;;;;5081634;28;20492;-66
2021/01/30 03:30:43;;;;;;;0.82;0.30;;;5.80;99.90;;;;;;5073918;28;20054;-64
2021/01/30 03:33:10;;;;;;;3.33;0.70;;;5.80;99.90;;;;;;5088468;28;20059;-64
2021/01/30 03:35:36;;;;;;;0.80;0.30;;;5.90;99.90;;;;;;5073374;28;20032;-63
2021/01/30 03:38:02;;;;;;;0.45;0.20;;;5.90;99.90;;;;;;5082111;28;20456;-65
2021/01/30 03:40:28;;;;;;;0.70;0.28;;;5.90;99.90;;;;;;5091144;28;20036;-61
2021/01/30 03:42:53;;;;;;;0.65;0.30;;;5.90;99.90;;;;;;5083421;28;20078;-63
2021/01/30 03:45:26;;;;;;;1.08;0.45;;;6.00;99.90;;;;;;5088950;28;20036;-64
2021/01/30 03:47:52;;;;;;;2.00;0.40;;;6.00;99.90;;;;;;5077018;28;20036;-65
2021/01/30 03:50:19;;;;;;;1.55;0.32;;;6.00;99.90;;;;;;5080559;28;20032;-64
2021/01/30 03:52:45;;;;;;;0.45;0.20;;;6.00;99.90;;;;;;5092699;28;20032;-63
2021/01/30 03:55:11;;;;;;;1.10;0.13;;;6.10;99.90;;;;;;5085278;28;20070;-63
2021/01/30 03:57:37;;;;;;;0.55;0.40;;;6.10;99.90;;;;;;5092376;28;20124;-63
2021/01/30 04:00:10;;;;;;;3.88;0.35;;;6.10;99.90;;;;;;5082278;28;20090;-63
2021/01/30 04:02:35;;;;;;;0.20;0.20;;;6.10;99.90;;;;;;5081449;28;20461;-63
2021/01/30 04:05:01;;;;;;;1.85;0.25;;;6.10;99.90;;;;;;5090372;28;20032;-63
2021/01/30 04:07:27;;;;;;;0.52;0.20;;;6.10;99.90;;;;;;5072456;28;20025;-63
2021/01/30 04:09:52;;;;;;;0.35;0.10;;;6.00;99.90;;;;;;5073346;28;20110;-63
2021/01/30 04:12:18;;;;;;;0.63;0.20;;;6.00;99.90;;;;;;5072506;28;20093;-63
2021/01/30 04:14:44;;;;;;;0.22;0.13;;;6.00;99.90;;;;;;5087508;28;20099;-63
2021/01/30 04:17:09;;;;;;;1.15;0.25;;;6.00;99.90;;;;;;5092583;28;20032;-64
2021/01/30 04:19:37;;;;;;;0.85;0.40;;;6.00;99.90;;;;;;5080953;28;20028;-63
2021/01/30 04:22:04;;;;;;;0.50;0.28;;;6.00;99.90;;;;;;5078900;28;20107;-63
2021/01/30 04:24:30;;;;;;;1.27;0.28;;;5.90;99.90;;;;;;5081720;28;20060;-63
2021/01/30 04:26:56;;;;;;;2.03;0.25;;;5.90;99.90;;;;;;5081387;28;20043;-63
2021/01/30 04:29:22;;;;;;;0.73;0.32;;;6.00;99.90;;;;;;5072335;28;20028;-63
2021/01/30 04:31:56;;;;;;;3.10;0.30;;;5.90;99.90;;;;;;5083119;28;20036;-63
2021/01/30 04:34:22;;;;;;;0.43;0.40;;;5.90;99.90;;;;;;5086191;28;20029;-66
2021/01/30 04:36:48;;;;;;;1.27;0.30;;;6.00;99.90;;;;;;5089399;28;20542;-64
2021/01/30 04:39:14;;;;;;;2.55;0.40;;;6.00;99.90;;;;;;5085297;28;20036;-66
2021/01/30 04:41:57;;;;;;;4.15;0.40;;;6.00;99.90;;;;;;5092040;28;20020;-63
2021/01/30 04:44:26;;;;;;;2.15;0.45;;;6.10;99.90;;;;;;5082931;28;20024;-63
2021/01/30 04:47:06;;;;;;;1.40;0.35;;;6.10;99.90;;;;;;5076464;28;20107;-63
2021/01/30 04:50:00;;;;;;;3.75;0.40;;;6.10;99.90;;;;;;5080498;28;20606;-63
2021/01/30 04:52:47;;;;;;;2.00;0.30;;;6.10;99.90;;;;;;5090711;28;20032;-63
2021/01/30 04:55:54;;;;;;;3.15;0.80;;;6.10;99.90;;;;;;5092028;28;20036;-65
2021/01/30 04:58:34;;;;;;;3.55;0.60;;;6.10;99.90;;;;;;5062616;28;20144;-64
2021/01/30 05:01:14;;;;;;;2.53;0.50;;;6.10;99.90;;;;;;5080616;28;20092;-63
2021/01/30 05:03:52;;;;;;;4.10;0.73;;;6.10;99.90;;;;;;5081928;28;20028;-63
2021/01/30 05:06:32;;;;;;;3.83;0.60;;;6.10;99.90;;;;;;5091165;28;20025;-64
2021/01/30 05:09:04;;;;;;;3.95;0.80;;;6.10;99.90;;;;;;5083874;28;20035;-64
2021/01/30 05:11:31;;;;;;;6.35;0.73;;;6.20;99.90;;;;;;5091404;28;20027;-64
2021/01/30 05:14:00;;;;;;;4.68;0.80;;;6.20;99.90;;;;;;5090267;28;20032;-63
2021/01/30 05:16:33;;;;;;;5.70;0.77;;;6.10;99.90;;;;;;5090582;28;20137;-63
2021/01/30 05:19:09;;;;;;;6.75;0.70;;;6.10;99.90;;;;;;5081373;28;20401;-64
2021/01/30 05:21:41;;;;;;;3.08;0.90;;;6.10;99.90;;;;;;5076996;28;20032;-64
2021/01/30 05:24:09;;;;;;;4.25;0.82;;;6.10;99.90;;;;;;5090159;28;20036;-64
2021/01/30 05:27:02;;;;;;;6.47;0.82;;;6.20;99.90;;;;;;5090035;28;20616;-63
2021/01/30 05:29:33;;;;;;;6.65;1.25;;;6.10;99.90;;;;;;5090537;28;20101;-63
2021/01/30 05:32:09;;;;;;;4.68;0.95;;;6.20;99.90;;;;;;5076534;28;20154;-63
2021/01/30 05:34:41;;;;;;;4.93;0.93;;;6.20;99.90;;;;;;5070627;28;20028;-63
2021/01/30 05:37:12;;;;;;;5.05;1.05;;;6.20;99.90;;;;;;5086270;28;20044;-63
2021/01/30 05:39:53;;;;;;;3.22;0.80;;;6.20;99.90;;;;;;5081669;28;20043;-63
2021/01/30 05:42:45;;;;;;;7.60;0.80;;;6.20;99.90;;;;;;5079403;28;20047;-63
2021/01/30 05:45:33;;;;;;;7.38;0.85;;;6.20;99.90;;;;;;5081941;28;20107;-64
2021/01/30 05:48:00;;;;;;;4.32;0.90;;;6.20;99.90;;;;;;5084405;28;20035;-63
2021/01/30 05:50:40;;;;;;;7.75;0.85;;;6.10;99.70;;;;;;5090343;28;20023;-64
2021/01/30 05:53:05;;;;;;;;;;;6.10;99.90;;;;;;5083151;28;20058;-64
2021/01/30 05:55:36;;;;;;;6.22;0.98;;;6.10;99.80;;;;;;5090702;28;19916;-63
2021/01/30 05:58:11;;;;;;;8.82;1.30;;;6.10;99.50;;;;;;5082516;28;20040;-63
2021/01/30 06:00:38;;;;;;;6.07;0.75;;;6.10;99.90;;;;;;5083169;28;20024;-63
2021/01/30 06:03:13;;;;;;;12.75;1.17;;;6.00;99.70;;;;;;5080918;28;20041;-63
2021/01/30 06:05:45;;;;;;;8.95;1.35;;;6.00;99.70;;;;;;5090501;28;20024;-64
2021/01/30 06:08:26;;;;;;;7.38;1.33;;;6.00;99.70;;;;;;5071095;28;20036;-64
2021/01/30 06:11:03;;;;;;;9.35;1.30;;;6.00;99.60;;;;;;5077113;28;20028;-63
2021/01/30 06:13:29;;;;;;;8.88;1.38;;;6.00;99.80;;;;;;5081361;28;20079;-64
2021/01/30 06:16:01;;;;;;;7.88;1.58;;;6.00;99.90;;;;;;5076368;28;20465;-63
2021/01/30 06:18:53;;;;;;;8.32;1.55;;;5.90;99.90;;;;;;5069466;28;20083;-63
2021/01/30 06:21:21;;;;;;;6.55;1.30;;;5.90;99.90;;;;;;5068043;28;20048;-64
2021/01/30 06:24:09;;;;;;;7.70;1.40;;;5.90;99.90;;;;;;5081263;28;20028;-63
2021/01/30 06:26:49;;;;;;;9.75;1.77;;;5.90;99.90;;;;;;5089197;28;20103;-63
2021/01/30 06:29:25;;;;;;;8.63;2.47;;;5.80;99.90;;;;;;5076085;28;20106;-66
2021/01/30 06:31:52;;;;;;;9.27;1.38;;;5.80;99.90;;;;;;5089526;28;20039;-63
2021/01/30 06:34:23;;;;;;;13.40;2.10;;;5.80;99.90;;;;;;5083320;28;20028;-63
2021/01/30 06:36:50;;;;;;;9.23;1.98;;;5.80;99.90;;;;;;5078889;28;20469;-63
2021/01/30 06:39:31;;;;;;;13.18;1.88;;;5.80;99.90;;;;;;5081220;28;20035;-66
2021/01/30 06:42:03;;;;;;;10.55;1.63;;;5.80;99.90;;;;;;5081788;28;20028;-64
2021/01/30 06:44:30;;;;;;;13.27;1.98;;;5.70;99.90;;;;;;5079446;28;20073;-63
2021/01/30 06:47:12;;;;;;;9.85;2.30;;;5.70;99.90;;;;;;5083110;28;20024;-63
2021/01/30 06:49:42;;;;;;;9.85;1.52;;;5.70;99.90;;;;;;5078134;28;20121;-64
2021/01/30 06:52:30;;;;;;;10.77;1.70;;;5.70;99.90;;;;;;5086155;28;20020;-64
2021/01/30 06:55:04;;;;;;;9.63;1.35;;;5.70;99.90;;;;;;5086846;28;20020;-63
2021/01/30 06:57:43;;;;;;;8.27;1.85;;;5.80;99.90;;;;;;5087407;28;20138;-64
2021/01/30 07:00:17;;;;;;;9.25;1.92;;;5.80;99.50;;;;;;5085141;28;20076;-63
2021/01/30 07:02:51;;;;;;;12.63;1.75;;;5.80;99.60;;;;;;5081733;28;20051;-64
2021/01/30 07:05:39;;;;;;;14.75;1.88;;;5.90;99.40;;;;;;5085179;28;20089;-66
2021/01/30 07:08:22;;;;;;;8.93;1.45;;;5.90;99.20;;;;;;5086991;28;20055;-64
2021/01/30 07:11:03;;;;;;;12.98;2.25;;;5.90;99.10;;;;;;5087771;28;20028;-64
2021/01/30 07:14:06;;;;;;;5.63;1.48;;;6.00;98.50;;;;;;5084388;28;20028;-64
2021/01/30 07:17:16;;;;;;;7.93;1.73;;;6.00;98.30;;;;;;5085188;28;20043;-63
2021/01/30 07:20:03;;;;;;;8.00;1.60;;;6.10;98.40;;;;;;5079269;28;20123;-65
2021/01/30 07:22:50;;;;;;;8.02;1.85;;;6.20;97.60;;;;;;5086552;28;20277;-63
2021/01/30 07:25:22;;;;;;;11.93;1.75;;;6.20;97.60;;;;;;5083581;28;20579;-66
2021/01/30 07:27:59;;;;;;;8.68;1.50;;;6.20;97.60;;;;;;5087335;28;20092;-63
2021/01/30 07:30:51;;;;;;;11.40;2.38;;;6.20;97.70;;;;;;5085245;28;20103;-62
2021/01/30 07:33:23;;;;;;;12.50;2.95;;;6.20;97.70;;;;;;5088207;28;20031;-66
2021/01/30 07:36:13;;;;;;;12.32;1.52;;;6.30;97.40;;;;;;5087326;28;20020;-63
2021/01/30 07:38:58;;;;;;;10.70;2.00;;;6.30;97.30;;;;;;5083544;28;20078;-63
2021/01/30 07:41:48;;;;;;;8.93;2.00;;;6.30;97.20;;;;;;5075849;28;20077;-63
2021/01/30 07:44:18;;;;;;;;;;;6.40;96.70;;;;;;5087146;28;20085;-65
2021/01/30 07:46:47;;;;;;;8.10;1.90;;;6.40;96.60;;;;;;5080883;28;19909;-63
2021/01/30 07:49:20;;;;;;;10.97;2.10;;;6.40;96.70;;;;;;5086620;28;20036;-62
2021/01/30 07:51:45;;;;;;;9.20;1.70;;;6.40;96.60;;;;;;5089533;28;20028;-63
2021/01/30 07:54:12;;;;;;;7.15;1.88;;;6.50;96.10;;;;;;5081375;28;20073;-63
2021/01/30 07:56:41;;;;;;;10.18;2.08;;;6.50;96.20;;;;;;5083544;28;20020;-64
2021/01/30 07:59:29;;;;;;;7.93;1.55;;;6.50;96.00;;;;;;5078276;28;20123;-63
2021/01/30 08:02:30;;;;;;;11.05;2.15;;;6.60;96.30;;;;;;5088094;28;20028;-63
2021/01/30 08:05:20;;;;;;;13.77;1.92;;;6.60;95.70;;;;;;5084418;28;20040;-63
2021/01/30 08:07:54;;;;;;;11.27;2.00;;;6.70;95.20;;;;;;5089442;28;20109;-63
2021/01/30 08:10:34;;;;;;;13.23;1.77;;;6.70;95.30;;;;;;5083413;28;20036;-63
2021/01/30 08:13:22;;;;;;;;;;;6.70;95.60;;;;;;5086164;28;20129;-62
2021/01/30 08:15:59;;;;;;;7.55;1.52;;;6.70;95.40;;;;;;5092060;28;19908;-62
2021/01/30 08:18:28;;;;;;;7.10;1.73;;;6.80;95.40;;;;;;5086811;28;20044;-61
2021/01/30 08:21:07;;;;;;;11.68;1.73;;;6.80;94.90;;;;;;5091571;28;20039;-62
2021/01/30 08:23:51;;;;;;;12.60;1.92;;;6.90;94.20;;;;;;5083627;28;20507;-62
2021/01/30 08:26:43;;;;;;;12.60;1.83;;;7.00;93.80;;;;;;5090431;28;20393;-65
2021/01/30 08:29:11;;;;;;;16.35;2.60;;;7.00;93.40;;;;;;5084226;28;20115;-64
2021/01/30 08:31:37;;;;;;;8.40;1.85;;;7.10;93.10;;;;;;5090914;28;20086;-62
2021/01/30 08:34:32;;;;;;;11.48;1.92;;;7.10;92.90;;;;;;5082821;28;20419;-62
2021/01/30 08:37:00;;;;;;;12.20;2.08;;;7.10;92.60;;;;;;5082705;28;20393;-62
2021/01/30 08:39:33;;;;;;;11.98;1.98;;;7.20;92.30;;;;;;5090118;28;20085;-65
2021/01/30 08:42:05;;;;;;;9.15;1.90;;;7.20;91.90;;;;;;5089994;28;20020;-64
2021/01/30 08:44:38;;;;;;;11.23;2.38;;;7.20;91.80;;;;;;5089432;28;20031;-62
2021/01/30 08:47:05;;;;;;;11.13;2.15;;;7.30;91.80;;;;;;5087501;28;20071;-62
2021/01/30 08:49:33;;;;;;;13.90;2.10;;;7.30;91.40;;;;;;5074245;28;20029;-62
2021/01/30 08:52:13;;;;;;;10.60;1.88;;;7.30;91.60;;;;;;5072961;28;20089;-62
2021/01/30 08:54:40;;;;;;;9.40;1.70;;;7.30;92.20;;;;;;5086928;28;20031;-63
2021/01/30 08:57:31;;;;;;;10.15;2.72;;;7.30;92.20;;;;;;5083798;28;20055;-62
2021/01/30 09:00:05;;;;;;;12.85;2.20;;;7.40;92.30;;;;;;5074946;28;20112;-63
2021/01/30 09:02:34;;;;;;;16.38;3.28;;;7.40;92.30;;;;;;5076688;28;20526;-62
2021/01/30 09:05:31;;;;;;;14.45;2.88;;;7.40;92.20;;;;;;5083594;28;20036;-62
2021/01/30 09:07:59;;;;;;;10.18;2.33;;;7.40;92.20;;;;;;5091281;28;20047;-62
2021/01/30 09:10:35;;;;;;;13.80;2.33;;;7.40;92.20;;;;;;5087519;28;20033;-62
2021/01/30 09:13:06;;;;;;;13.77;2.78;;;7.50;92.00;;;;;;5088994;28;20032;-62
2021/01/30 09:15:37;;;;;;;13.70;2.65;;;7.50;92.00;;;;;;5071099;28;20477;-62
2021/01/30 09:18:22;;;;;;;11.88;2.03;;;7.50;91.60;;;;;;5079491;28;20036;-62
2021/01/30 09:20:53;;;;;;;15.40;2.30;;;7.60;91.50;;;;;;5082824;28;20461;-63
2021/01/30 09:23:33;;;;;;;12.48;1.95;;;7.60;91.40;;;;;;5082143;28;20021;-63
2021/01/30 09:26:25;;;;;;;17.05;3.58;;;7.60;91.30;;;;;;5072013;28;20060;-63
2021/01/30 09:29:01;;;;;;;8.75;2.28;;;7.60;91.70;;;;;;5080569;28;20126;-63
2021/01/30 09:31:28;;;;;;;11.48;2.17;;;7.70;91.20;;;;;;5087220;28;20047;-63
2021/01/30 09:34:11;;;;;;;11.88;2.35;;;7.70;91.10;;;;;;5080418;28;20032;-65
2021/01/30 09:36:48;;;;;;;12.10;2.40;;;7.80;91.00;;;;;;5070420;28;20071;-62
2021/01/30 09:39:40;;;;;;;13.25;2.95;;;7.90;91.00;;;;;;5084143;28;20036;-63
2021/01/30 09:42:10;;;;;;;11.98;2.22;;;7.90;90.50;;;;;;5076909;28;20052;-62
2021/01/30 09:44:37;;;;;;;13.68;2.40;;;8.00;90.20;;;;;;5086023;28;20031;-62
2021/01/30 09:47:11;;;;;;;8.73;1.95;;;8.00;90.00;;;;;;5074496;28;20048;-62
2021/01/30 09:49:44;;;;;;;8.15;1.55;;;8.10;88.70;;;;;;5070538;28;20382;-63
2021/01/30 09:52:14;;;;;;;12.15;2.08;;;8.10;88.70;;;;;;5070692;28;20028;-62
2021/01/30 09:54:40;;;;;;;15.53;2.90;;;8.20;88.60;;;;;;5070256;28;20055;-63
2021/01/30 09:57:08;;;;;;;12.95;2.63;;;8.20;88.20;;;;;;5070618;28;20064;-63
2021/01/30 09:59:34;;;;;;;15.07;2.20;;;8.20;87.70;;;;;;5080858;28;20036;-63
2021/01/30 10:02:20;;;;;;;16.38;2.42;;;8.30;87.70;;;;;;5087553;28;20108;-62
2021/01/30 10:04:47;;;;;;;9.35;2.20;;;8.20;87.30;;;;;;5086959;28;20032;-62
2021/01/30 10:07:24;;;;;;;9.43;2.03;;;8.30;87.60;;;;;;5089898;28;20027;-62
2021/01/30 10:09:50;;;;;;;8.88;1.90;;;8.30;87.30;;;;;;5089533;28;20545;-63
2021/01/30 10:12:19;;;;;;;11.32;2.33;;;8.40;87.30;;;;;;5089630;28;20521;-62
2021/01/30 10:14:52;;;;;;;9.23;2.28;;;8.40;87.30;;;;;;5086977;28;20036;-62
2021/01/30 10:17:29;;;;;;;8.30;2.13;;;8.50;87.20;;;;;;5085458;28;20020;-63
2021/01/30 10:20:01;;;;;;;14.45;2.67;;;8.60;86.80;;;;;;5088334;28;20024;-62
2021/01/30 10:22:37;;;;;;;9.88;2.38;;;8.60;86.30;;;;;;5088568;28;20081;-62
2021/01/30 10:25:08;;;;;;;14.77;2.40;;;8.70;87.10;;;;;;5086025;28;20020;-61
2021/01/30 10:27:34;;;;;;;10.98;2.00;;;8.80;87.10;;;;;;5083631;28;20461;-63
2021/01/30 10:30:01;;;;;;;8.38;1.83;;;8.90;87.60;;;;;;5087379;28;20032;-63
2021/01/30 10:32:40;;;;;;;10.90;2.60;;;8.90;87.20;;;;;;5087007;28;20058;-63
2021/01/30 10:35:34;;;;;;;12.07;1.60;;;8.80;88.30;;;;;;5084532;28;20466;-63
2021/01/30 10:38:07;;;;;;;14.85;2.42;;;8.80;88.60;;;;;;5088424;28;20520;-65
2021/01/30 10:40:51;;;;;;;7.93;2.53;;;8.80;88.70;;;;;;5086012;28;20024;-63
2021/01/30 10:43:25;;;;;;;12.95;2.17;;;8.70;90.20;;;;;;5086826;28;20114;-63
2021/01/30 10:46:17;;;;;;;9.70;2.15;;;8.70;90.30;;;;;;5078680;28;20063;-63
2021/01/30 10:48:44;;;;;;;8.70;1.83;;;8.70;90.30;;;;;;5072434;28;20032;-63
2021/01/30 10:51:16;;;;;;;11.02;2.05;;;8.60;90.60;;;;;;5081506;28;20063;-63
2021/01/30 10:53:42;;;;;;;9.52;2.28;;;8.50;91.40;;;;;;5070661;28;20070;-63
2021/01/30 10:56:19;;;;;;;13.65;2.60;;;8.60;91.80;;;;;;5090109;28;20039;-63
2021/01/30 10:58:45;;;;;;;8.48;2.05;;;8.50;92.60;;;;;;5087507;28;20072;-63
2021/01/30 11:01:12;;;;;;;3.67;1.48;;;8.50;93.30;;;;;;5081538;28;20036;-63
2021/01/30 11:03:46;;;;;;;11.55;2.28;;;8.50;93.70;;;;;;5088876;28;20020;-65
2021/01/30 11:06:31;;;;;;;12.77;2.05;;;8.60;94.30;;;;;;5070658;28;20424;-63
2021/01/30 11:09:23;;;;;;;8.13;2.20;;;8.60;94.00;;;;;;5087634;28;20043;-63
2021/01/30 11:11:50;;;;;;;13.80;2.83;;;8.60;94.30;;;;;;5073499;28;20338;-62
2021/01/30 11:14:22;;;;;;;9.07;2.17;;;8.60;95.60;;;;;;5085730;28;20028;-62
2021/01/30 11:16:48;;;;;;;16.83;2.38;;;8.60;95.40;;;;;;5089751;28;20028;-62
2021/01/30 11:19:39;;;;;;;13.52;2.42;;;8.70;95.10;;;;;;5081772;28;20117;-61
2021/01/30 11:22:26;;;;;;;12.13;2.05;;;8.70;92.10;;;;;;5082197;28;20028;-65
2021/01/30 11:25:05;;;;;;;8.30;2.30;;;8.60;94.40;;;;;;5077776;28;20139;-61
2021/01/30 11:27:33;;;;;;;11.35;2.10;;;8.60;94.80;;;;;;5077482;28;20032;-62
2021/01/30 11:30:16;;;;;;;8.30;2.17;;;8.60;93.70;;;;;;5086247;28;20048;-60
2021/01/30 11:32:47;;;;;;;13.18;2.33;;;8.50;94.80;;;;;;5069339;28;20147;-61
2021/01/30 11:35:26;;;;;;;18.50;2.70;;;8.50;94.80;;;;;;5078381;28;20028;-62
2021/01/30 11:37:52;;;;;;;11.15;2.35;;;8.40;95.40;;;;;;5069268;28;20058;-62
2021/01/30 11:40:19;;;;;;;8.40;1.65;;;8.40;96.80;;;;;;5073219;28;20139;-64
2021/01/30 11:42:45;;;;;;;10.55;1.85;;;8.40;96.90;;;;;;5075988;28;20051;-62
2021/01/30 11:45:12;;;;;;;10.50;2.13;;;8.40;95.90;;;;;;5079901;28;20033;-61
2021/01/30 11:47:38;;;;;;;8.77;2.42;;;8.40;96.10;;;;;;5089879;28;20833;-62
2021/01/30 11:50:05;;;;;;;10.82;1.70;;;8.40;97.40;;;;;;5072978;28;20028;-66
2021/01/30 11:52:31;;;;;;;8.18;1.70;;;8.30;95.50;;;;;;5081003;28;20016;-61
2021/01/30 11:54:57;;;;;;;5.93;1.50;;;8.30;95.40;;;;;;5081497;28;21481;-61
2021/01/30 11:57:23;;;;;;;10.13;1.92;;;8.30;96.20;;;;;;5091154;28;20103;-64
2021/01/30 11:59:48;;;;;;;9.00;1.70;;;8.30;97.20;;;;;;5088799;28;20044;-63
2021/01/30 12:02:18;;;;;;;7.63;1.48;;;8.30;96.70;;;;;;5088771;28;20028;-62
2021/01/30 12:04:44;;;;;;;11.73;1.77;;;8.30;95.30;;;;;;5090802;28;20040;-62
2021/01/30 12:07:09;;;;;;;14.68;1.73;;;8.20;96.90;;;;;;5087165;28;20032;-61
2021/01/30 12:09:35;;;;;;;7.05;1.40;;;8.10;97.50;;;;;;5090936;28;20107;-61
2021/01/30 12:12:00;;;;;;;2.90;1.08;;;8.00;98.50;;;;;;5090289;28;20099;-61
2021/01/30 12:14:26;;;;;;;8.80;1.63;;;7.90;98.00;;;;;;5087860;28;20458;-62
2021/01/30 12:16:53;;;;;;;6.88;1.48;;;7.80;99.70;;;;;;5092170;28;20032;-61
2021/01/30 12:19:20;;;;;;;8.45;1.88;;;7.70;99.90;;;;;;5088259;28;20032;-62
2021/01/30 12:21:46;;;;;;;9.25;2.05;;;7.60;99.90;;;;;;5086750;28;20089;-63
2021/01/30 12:24:11;;;;;;;7.38;1.80;;;7.50;99.90;;;;;;5089421;28;20841;-61
2021/01/30 12:26:37;;;;;;;11.38;2.03;;;7.40;99.90;;;;;;5088917;28;20155;-62
2021/01/30 12:29:03;;;;;;;11.77;2.13;;;7.30;99.90;;;;;;5087191;28;20032;-65
2021/01/30 12:31:29;;;;;;;9.52;1.65;;;7.20;99.90;;;;;;5088893;28;20096;-63
2021/01/30 12:33:55;;;;;;;7.90;1.88;;;7.10;99.90;;;;;;5090002;28;20027;-63
2021/01/30 12:36:20;;;;;;;9.02;2.10;;;7.10;99.90;;;;;;5088646;28;20052;-67
2021/01/30 12:38:46;;;;;;;12.95;2.05;;;7.00;99.90;;;;;;5087948;28;20039;-64
2021/01/30 12:41:12;;;;;;;13.93;2.35;;;6.90;99.90;;;;;;5090683;28;20032;-62
2021/01/30 12:43:38;;;;;;;9.18;2.13;;;6.90;99.90;;;;;;5086000;28;20028;-62
2021/01/30 12:46:04;;;;;;;15.90;2.67;;;6.80;99.90;;;;;;5090442;28;20041;-63
2021/01/30 12:48:29;;;;;;;13.50;2.28;;;6.80;99.90;;;;;;5090109;28;20035;-63
2021/01/30 12:50:57;;;;;;;12.85;2.72;;;6.80;99.90;;;;;;5084858;28;20035;-64
2021/01/30 12:53:23;;;;;;;17.92;2.90;;;6.70;99.90;;;;;;5088650;28;20035;-65
2021/01/30 12:55:49;;;;;;;14.27;2.88;;;6.80;99.90;;;;;;5088172;28;20082;-64
2021/01/30 12:58:24;;;;;;;8.57;1.90;;;6.80;99.90;;;;;;5089304;28;20476;-63
2021/01/30 13:00:51;;;;;;;12.73;2.80;;;6.80;99.90;;;;;;5088680;28;20028;-66
2021/01/30 13:03:18;;;;;;;14.40;3.05;;;6.80;99.90;;;;;;5089194;28;20052;-64
2021/01/30 13:05:44;;;;;;;17.33;3.45;;;6.90;99.90;;;;;;5089467;28;20050;-65
2021/01/30 13:08:10;;;;;;;13.85;3.33;;;6.90;99.90;;;;;;5090274;28;20392;-63
2021/01/30 13:10:36;;;;;;;10.43;2.97;;;6.90;99.90;;;;;;5090208;28;20032;-63
2021/01/30 13:13:03;;;;;;;9.18;2.97;;;6.90;99.90;;;;;;5090758;28;20457;-67
2021/01/30 13:15:29;;;;;;;13.50;3.00;;;6.90;99.90;;;;;;5088637;28;20107;-67
2021/01/30 13:17:54;;;;;;;9.00;2.67;;;6.90;99.90;;;;;;5090077;28;20440;-66
2021/01/30 13:20:22;;;;;;;11.48;2.45;;;6.90;99.90;;;;;;5085556;28;20114;-68
2021/01/30 13:22:48;;;;;;;9.38;2.17;;;6.90;99.90;;;;;;5088184;28;20070;-66
2021/01/30 13:25:16;;;;;;;9.25;2.92;;;6.80;99.90;;;;;;5090770;28;20059;-64